sensor_id;sensor_type;location;lat;lon;timestamp;P1;durP1;ratioP1;P2;durP2;ratioP2
14326;SDS011;7247;53.330;-1.180;2022-07-29T00:00:54;2.33;;;1.67;;
14326;SDS011;7247;53.330;-1.180;2022-07-29T00:03:20;3.80;;;1.90;;
14326;SDS011;7247;53.330;-1.180;2022-07-29T00:05:47;2.23;;;1.40;;
14326;SDS011;7247;53.330;-1.180;2022-07-29T00:08:14;4.77;;;1.90;;
14326;SDS011;7247;53.330;-1.180;2022-07-29T00:10:41;3.63;;;1.80;;
14326;SDS011;7247;53.330;-1.180;2022-07-29T00:13:08;4.33;;;1.60;;
14326;SDS011;7247;53.330;-1.180;2022-07-29T00:15:34;3.47;;;1.50;;
14326;SDS011;7247;53.330;-1.180;2022-07-29T00:20:49;1.50;;;1.40;;
14326;SDS011;7247;53.330;-1.180;2022-07-29T00:23:16;4.30;;;2.03;;
14326;SDS011;7247;53.330;-1.180;2022-07-29T00:25:42;4.43;;;1.80;;
14326;SDS011;7247;53.330;-1.180;2022-07-29T00:30:57;4.77;;;1.87;;
14326;SDS011;7247;53.330;-1.180;2022-07-29T00:33:23;2.57;;;1.80;;
14326;SDS011;7247;53.330;-1.180;2022-07-29T00:35:51;4.93;;;2.03;;
14326;SDS011;7247;53.330;-1.180;2022-07-29T00:41:06;2.73;;;1.80;;
14326;SDS011;7247;53.330;-1.180;2022-07-29T00:43:33;4.40;;;1.93;;
14326;SDS011;7247;53.330;-1.180;2022-07-29T00:45:59;4.70;;;1.80;;
14326;SDS011;7247;53.330;-1.180;2022-07-29T00:48:28;5.20;;;1.70;;
14326;SDS011;7247;53.330;-1.180;2022-07-29T00:50:57;2.67;;;1.50;;
14326;SDS011;7247;53.330;-1.180;2022-07-29T00:53:24;3.37;;;1.70;;
14326;SDS011;7247;53.330;-1.180;2022-07-29T00:55:51;6.33;;;1.90;;
14326;SDS011;7247;53.330;-1.180;2022-07-29T00:58:21;6.30;;;1.70;;
14326;SDS011;7247;53.330;-1.180;2022-07-29T01:00:48;4.70;;;1.70;;
14326;SDS011;7247;53.330;-1.180;2022-07-29T01:03:15;4.00;;;2.03;;
14326;SDS011;7247;53.330;-1.180;2022-07-29T01:05:42;5.20;;;1.80;;
14326;SDS011;7247;53.330;-1.180;2022-07-29T01:10:58;4.07;;;1.57;;
14326;SDS011;7247;53.330;-1.180;2022-07-29T01:13:25;2.93;;;1.70;;
14326;SDS011;7247;53.330;-1.180;2022-07-29T01:15:54;3.20;;;1.70;;
14326;SDS011;7247;53.330;-1.180;2022-07-29T01:18:22;3.60;;;1.97;;
14326;SDS011;7247;53.330;-1.180;2022-07-29T01:20:55;3.53;;;2.03;;
14326;SDS011;7247;53.330;-1.180;2022-07-29T01:26:21;4.80;;;2.10;;
14326;SDS011;7247;53.330;-1.180;2022-07-29T01:31:41;3.67;;;1.90;;
14326;SDS011;7247;53.330;-1.180;2022-07-29T01:34:10;3.20;;;1.70;;
14326;SDS011;7247;53.330;-1.180;2022-07-29T01:36:40;4.03;;;2.07;;
14326;SDS011;7247;53.330;-1.180;2022-07-29T01:42:14;3.80;;;1.90;;
14326;SDS011;7247;53.330;-1.180;2022-07-29T01:47:34;5.37;;;1.93;;
14326;SDS011;7247;53.330;-1.180;2022-07-29T01:50:04;3.30;;;1.83;;
14326;SDS011;7247;53.330;-1.180;2022-07-29T01:52:33;3.60;;;1.70;;
14326;SDS011;7247;53.330;-1.180;2022-07-29T01:55:03;3.40;;;1.90;;
14326;SDS011;7247;53.330;-1.180;2022-07-29T01:57:33;3.13;;;2.10;;
14326;SDS011;7247;53.330;-1.180;2022-07-29T02:00:00;4.43;;;1.70;;
14326;SDS011;7247;53.330;-1.180;2022-07-29T02:02:27;9.07;;;2.30;;
14326;SDS011;7247;53.330;-1.180;2022-07-29T02:04:55;3.43;;;2.10;;
14326;SDS011;7247;53.330;-1.180;2022-07-29T02:07:23;4.83;;;1.93;;
14326;SDS011;7247;53.330;-1.180;2022-07-29T02:09:51;3.63;;;1.93;;
14326;SDS011;7247;53.330;-1.180;2022-07-29T02:12:18;3.47;;;2.10;;
14326;SDS011;7247;53.330;-1.180;2022-07-29T02:14:47;4.90;;;2.00;;
14326;SDS011;7247;53.330;-1.180;2022-07-29T02:17:13;6.93;;;2.73;;
14326;SDS011;7247;53.330;-1.180;2022-07-29T02:22:47;5.23;;;2.10;;
14326;SDS011;7247;53.330;-1.180;2022-07-29T02:25:15;3.93;;;2.30;;
14326;SDS011;7247;53.330;-1.180;2022-07-29T02:27:43;3.73;;;1.90;;
14326;SDS011;7247;53.330;-1.180;2022-07-29T02:30:10;2.17;;;1.73;;
14326;SDS011;7247;53.330;-1.180;2022-07-29T02:32:38;4.83;;;2.17;;
14326;SDS011;7247;53.330;-1.180;2022-07-29T02:35:05;3.50;;;1.77;;
14326;SDS011;7247;53.330;-1.180;2022-07-29T02:40:34;5.53;;;2.07;;
14326;SDS011;7247;53.330;-1.180;2022-07-29T02:43:02;3.57;;;1.80;;
14326;SDS011;7247;53.330;-1.180;2022-07-29T02:45:30;4.63;;;2.20;;
14326;SDS011;7247;53.330;-1.180;2022-07-29T02:51:01;4.90;;;1.73;;
14326;SDS011;7247;53.330;-1.180;2022-07-29T02:53:31;6.03;;;2.30;;
14326;SDS011;7247;53.330;-1.180;2022-07-29T02:56:01;4.33;;;1.90;;
14326;SDS011;7247;53.330;-1.180;2022-07-29T03:01:33;7.70;;;2.20;;
14326;SDS011;7247;53.330;-1.180;2022-07-29T03:04:01;7.77;;;2.27;;
14326;SDS011;7247;53.330;-1.180;2022-07-29T03:06:29;3.17;;;1.93;;
14326;SDS011;7247;53.330;-1.180;2022-07-29T03:08:58;3.70;;;1.90;;
14326;SDS011;7247;53.330;-1.180;2022-07-29T03:11:26;5.43;;;2.07;;
14326;SDS011;7247;53.330;-1.180;2022-07-29T03:13:53;4.93;;;1.77;;
14326;SDS011;7247;53.330;-1.180;2022-07-29T03:16:20;2.67;;;1.80;;
14326;SDS011;7247;53.330;-1.180;2022-07-29T03:21:51;4.00;;;2.00;;
14326;SDS011;7247;53.330;-1.180;2022-07-29T03:24:25;4.50;;;2.13;;
14326;SDS011;7247;53.330;-1.180;2022-07-29T03:26:53;5.37;;;1.97;;
14326;SDS011;7247;53.330;-1.180;2022-07-29T03:29:22;5.03;;;2.03;;
14326;SDS011;7247;53.330;-1.180;2022-07-29T03:31:49;5.30;;;2.00;;
14326;SDS011;7247;53.330;-1.180;2022-07-29T03:34:15;3.57;;;1.90;;
14326;SDS011;7247;53.330;-1.180;2022-07-29T03:36:42;4.73;;;1.90;;
14326;SDS011;7247;53.330;-1.180;2022-07-29T03:42:13;3.00;;;1.80;;
14326;SDS011;7247;53.330;-1.180;2022-07-29T03:44:41;3.40;;;2.07;;
14326;SDS011;7247;53.330;-1.180;2022-07-29T03:47:09;3.33;;;2.00;;
14326;SDS011;7247;53.330;-1.180;2022-07-29T03:52:23;3.53;;;2.03;;
14326;SDS011;7247;53.330;-1.180;2022-07-29T03:54:50;3.40;;;2.33;;
14326;SDS011;7247;53.330;-1.180;2022-07-29T03:57:18;3.93;;;2.50;;
14326;SDS011;7247;53.330;-1.180;2022-07-29T04:02:48;5.73;;;2.20;;
14326;SDS011;7247;53.330;-1.180;2022-07-29T04:05:15;5.73;;;2.20;;
14326;SDS011;7247;53.330;-1.180;2022-07-29T04:10:44;4.37;;;1.87;;
14326;SDS011;7247;53.330;-1.180;2022-07-29T04:15:59;6.20;;;2.30;;
14326;SDS011;7247;53.330;-1.180;2022-07-29T04:20:57;5.73;;;2.20;;
14326;SDS011;7247;53.330;-1.180;2022-07-29T04:23:25;5.67;;;2.30;;
14326;SDS011;7247;53.330;-1.180;2022-07-29T04:25:52;4.67;;;2.10;;
14326;SDS011;7247;53.330;-1.180;2022-07-29T04:31:23;5.47;;;1.90;;
14326;SDS011;7247;53.330;-1.180;2022-07-29T04:33:49;5.40;;;2.07;;
14326;SDS011;7247;53.330;-1.180;2022-07-29T04:36:16;4.27;;;2.20;;
14326;SDS011;7247;53.330;-1.180;2022-07-29T04:38:43;7.53;;;2.40;;
14326;SDS011;7247;53.330;-1.180;2022-07-29T04:41:10;5.57;;;2.57;;
14326;SDS011;7247;53.330;-1.180;2022-07-29T04:43:36;4.87;;;2.90;;
14326;SDS011;7247;53.330;-1.180;2022-07-29T04:46:03;5.27;;;2.90;;
14326;SDS011;7247;53.330;-1.180;2022-07-29T04:51:20;3.10;;;2.23;;
14326;SDS011;7247;53.330;-1.180;2022-07-29T04:56:50;5.07;;;2.40;;
14326;SDS011;7247;53.330;-1.180;2022-07-29T04:59:17;2.93;;;1.90;;
14326;SDS011;7247;53.330;-1.180;2022-07-29T05:01:44;7.07;;;2.17;;
14326;SDS011;7247;53.330;-1.180;2022-07-29T05:04:10;3.83;;;2.00;;
14326;SDS011;7247;53.330;-1.180;2022-07-29T05:06:38;3.77;;;2.00;;
14326;SDS011;7247;53.330;-1.180;2022-07-29T05:12:08;6.27;;;2.07;;
14326;SDS011;7247;53.330;-1.180;2022-07-29T05:17:37;5.60;;;2.07;;
14326;SDS011;7247;53.330;-1.180;2022-07-29T05:20:04;3.90;;;2.23;;
14326;SDS011;7247;53.330;-1.180;2022-07-29T05:22:32;3.67;;;2.13;;
14326;SDS011;7247;53.330;-1.180;2022-07-29T05:24:59;4.53;;;2.20;;
14326;SDS011;7247;53.330;-1.180;2022-07-29T05:27:25;4.57;;;2.00;;
14326;SDS011;7247;53.330;-1.180;2022-07-29T05:29:52;5.20;;;2.20;;
14326;SDS011;7247;53.330;-1.180;2022-07-29T05:44:37;5.17;;;2.40;;
14326;SDS011;7247;53.330;-1.180;2022-07-29T05:47:03;4.07;;;2.63;;
14326;SDS011;7247;53.330;-1.180;2022-07-29T05:49:32;5.37;;;2.40;;
14326;SDS011;7247;53.330;-1.180;2022-07-29T05:51:59;6.43;;;2.57;;
14326;SDS011;7247;53.330;-1.180;2022-07-29T05:54:25;4.27;;;2.77;;
14326;SDS011;7247;53.330;-1.180;2022-07-29T05:56:52;4.93;;;2.87;;
14326;SDS011;7247;53.330;-1.180;2022-07-29T06:02:24;4.30;;;2.90;;
14326;SDS011;7247;53.330;-1.180;2022-07-29T06:04:50;3.77;;;2.60;;
14326;SDS011;7247;53.330;-1.180;2022-07-29T06:07:17;4.43;;;2.70;;
14326;SDS011;7247;53.330;-1.180;2022-07-29T06:09:44;3.63;;;2.73;;
14326;SDS011;7247;53.330;-1.180;2022-07-29T06:12:11;6.80;;;3.23;;
14326;SDS011;7247;53.330;-1.180;2022-07-29T06:14:38;4.33;;;2.97;;
14326;SDS011;7247;53.330;-1.180;2022-07-29T06:17:07;6.50;;;2.73;;
14326;SDS011;7247;53.330;-1.180;2022-07-29T06:22:38;3.13;;;2.73;;
14326;SDS011;7247;53.330;-1.180;2022-07-29T06:25:04;4.70;;;2.80;;
14326;SDS011;7247;53.330;-1.180;2022-07-29T06:27:31;5.47;;;2.90;;
14326;SDS011;7247;53.330;-1.180;2022-07-29T06:29:58;6.37;;;3.07;;
14326;SDS011;7247;53.330;-1.180;2022-07-29T06:32:24;8.23;;;3.17;;
14326;SDS011;7247;53.330;-1.180;2022-07-29T06:34:51;5.80;;;3.20;;
14326;SDS011;7247;53.330;-1.180;2022-07-29T06:37:17;4.67;;;3.00;;
14326;SDS011;7247;53.330;-1.180;2022-07-29T06:39:46;4.63;;;2.83;;
14326;SDS011;7247;53.330;-1.180;2022-07-29T06:42:13;4.87;;;3.10;;
14326;SDS011;7247;53.330;-1.180;2022-07-29T06:44:39;4.30;;;3.07;;
14326;SDS011;7247;53.330;-1.180;2022-07-29T06:47:06;3.80;;;3.00;;
14326;SDS011;7247;53.330;-1.180;2022-07-29T06:49:34;4.13;;;2.73;;
14326;SDS011;7247;53.330;-1.180;2022-07-29T06:52:00;4.67;;;2.80;;
14326;SDS011;7247;53.330;-1.180;2022-07-29T06:54:27;3.77;;;3.20;;
14326;SDS011;7247;53.330;-1.180;2022-07-29T06:56:55;8.33;;;3.03;;
14326;SDS011;7247;53.330;-1.180;2022-07-29T07:02:24;3.73;;;3.13;;
14326;SDS011;7247;53.330;-1.180;2022-07-29T07:04:51;6.43;;;3.37;;
14326;SDS011;7247;53.330;-1.180;2022-07-29T07:07:18;4.53;;;3.33;;
14326;SDS011;7247;53.330;-1.180;2022-07-29T07:09:47;5.43;;;3.00;;
14326;SDS011;7247;53.330;-1.180;2022-07-29T07:12:15;6.27;;;3.70;;
14326;SDS011;7247;53.330;-1.180;2022-07-29T07:14:41;3.60;;;3.20;;
14326;SDS011;7247;53.330;-1.180;2022-07-29T07:17:08;5.27;;;3.07;;
14326;SDS011;7247;53.330;-1.180;2022-07-29T07:19:35;4.83;;;2.93;;
14326;SDS011;7247;53.330;-1.180;2022-07-29T07:22:01;8.40;;;3.60;;
14326;SDS011;7247;53.330;-1.180;2022-07-29T07:24:28;5.90;;;3.10;;
14326;SDS011;7247;53.330;-1.180;2022-07-29T07:26:55;5.23;;;3.00;;
14326;SDS011;7247;53.330;-1.180;2022-07-29T07:32:25;5.03;;;3.30;;
14326;SDS011;7247;53.330;-1.180;2022-07-29T07:34:52;5.63;;;3.53;;
14326;SDS011;7247;53.330;-1.180;2022-07-29T07:37:18;6.03;;;3.20;;
14326;SDS011;7247;53.330;-1.180;2022-07-29T07:39:48;3.50;;;3.07;;
14326;SDS011;7247;53.330;-1.180;2022-07-29T07:42:16;3.83;;;3.27;;
14326;SDS011;7247;53.330;-1.180;2022-07-29T07:44:43;5.40;;;3.43;;
14326;SDS011;7247;53.330;-1.180;2022-07-29T07:47:10;5.00;;;3.07;;
14326;SDS011;7247;53.330;-1.180;2022-07-29T07:52:24;5.13;;;2.80;;
14326;SDS011;7247;53.330;-1.180;2022-07-29T07:54:50;4.13;;;2.93;;
14326;SDS011;7247;53.330;-1.180;2022-07-29T07:57:18;6.67;;;3.30;;
14326;SDS011;7247;53.330;-1.180;2022-07-29T07:59:46;4.03;;;3.03;;
14326;SDS011;7247;53.330;-1.180;2022-07-29T08:02:13;6.03;;;3.17;;
14326;SDS011;7247;53.330;-1.180;2022-07-29T08:04:39;5.50;;;3.30;;
14326;SDS011;7247;53.330;-1.180;2022-07-29T08:07:06;6.53;;;3.67;;
14326;SDS011;7247;53.330;-1.180;2022-07-29T08:12:22;6.90;;;4.07;;
14326;SDS011;7247;53.330;-1.180;2022-07-29T08:14:49;6.40;;;3.90;;
14326;SDS011;7247;53.330;-1.180;2022-07-29T08:17:15;6.90;;;3.60;;
14326;SDS011;7247;53.330;-1.180;2022-07-29T08:19:42;6.27;;;3.53;;
14326;SDS011;7247;53.330;-1.180;2022-07-29T08:22:08;8.10;;;3.40;;
14326;SDS011;7247;53.330;-1.180;2022-07-29T08:24:35;4.97;;;2.70;;
14326;SDS011;7247;53.330;-1.180;2022-07-29T08:27:17;5.60;;;2.83;;
14326;SDS011;7247;53.330;-1.180;2022-07-29T08:29:45;4.30;;;3.10;;
14326;SDS011;7247;53.330;-1.180;2022-07-29T08:32:12;5.87;;;3.20;;
14326;SDS011;7247;53.330;-1.180;2022-07-29T08:34:38;5.73;;;3.50;;
14326;SDS011;7247;53.330;-1.180;2022-07-29T08:37:05;6.50;;;4.73;;
14326;SDS011;7247;53.330;-1.180;2022-07-29T08:39:33;7.73;;;4.30;;
14326;SDS011;7247;53.330;-1.180;2022-07-29T08:42:00;9.23;;;3.80;;
14326;SDS011;7247;53.330;-1.180;2022-07-29T08:44:26;7.23;;;3.37;;
14326;SDS011;7247;53.330;-1.180;2022-07-29T08:46:54;5.93;;;3.90;;
14326;SDS011;7247;53.330;-1.180;2022-07-29T08:49:21;9.60;;;3.70;;
14326;SDS011;7247;53.330;-1.180;2022-07-29T08:51:48;4.37;;;3.60;;
14326;SDS011;7247;53.330;-1.180;2022-07-29T08:54:16;6.83;;;4.30;;
14326;SDS011;7247;53.330;-1.180;2022-07-29T08:56:43;6.00;;;4.17;;
14326;SDS011;7247;53.330;-1.180;2022-07-29T09:01:57;8.30;;;4.20;;
14326;SDS011;7247;53.330;-1.180;2022-07-29T09:04:24;7.27;;;3.83;;
14326;SDS011;7247;53.330;-1.180;2022-07-29T09:06:53;6.97;;;3.80;;
14326;SDS011;7247;53.330;-1.180;2022-07-29T09:12:06;5.30;;;3.67;;
14326;SDS011;7247;53.330;-1.180;2022-07-29T09:14:33;6.87;;;3.77;;
14326;SDS011;7247;53.330;-1.180;2022-07-29T09:17:01;5.77;;;3.50;;
14326;SDS011;7247;53.330;-1.180;2022-07-29T09:19:30;5.87;;;3.40;;
14326;SDS011;7247;53.330;-1.180;2022-07-29T09:21:58;8.07;;;3.60;;
14326;SDS011;7247;53.330;-1.180;2022-07-29T09:24:23;5.03;;;3.40;;
14326;SDS011;7247;53.330;-1.180;2022-07-29T09:26:50;6.53;;;3.50;;
14326;SDS011;7247;53.330;-1.180;2022-07-29T09:29:18;6.23;;;3.67;;
14326;SDS011;7247;53.330;-1.180;2022-07-29T09:31:45;7.07;;;3.53;;
14326;SDS011;7247;53.330;-1.180;2022-07-29T09:34:15;5.23;;;3.07;;
14326;SDS011;7247;53.330;-1.180;2022-07-29T09:36:43;5.57;;;2.90;;
14326;SDS011;7247;53.330;-1.180;2022-07-29T09:39:09;8.00;;;3.10;;
14326;SDS011;7247;53.330;-1.180;2022-07-29T09:41:45;5.47;;;3.13;;
14326;SDS011;7247;53.330;-1.180;2022-07-29T09:44:12;5.60;;;3.03;;
14326;SDS011;7247;53.330;-1.180;2022-07-29T09:46:39;6.93;;;3.07;;
14326;SDS011;7247;53.330;-1.180;2022-07-29T09:49:07;6.43;;;2.70;;
14326;SDS011;7247;53.330;-1.180;2022-07-29T09:51:35;6.43;;;2.70;;
14326;SDS011;7247;53.330;-1.180;2022-07-29T09:54:02;6.00;;;3.20;;
14326;SDS011;7247;53.330;-1.180;2022-07-29T09:56:47;5.27;;;3.00;;
14326;SDS011;7247;53.330;-1.180;2022-07-29T09:59:15;5.57;;;2.77;;
14326;SDS011;7247;53.330;-1.180;2022-07-29T10:01:42;4.47;;;2.20;;
14326;SDS011;7247;53.330;-1.180;2022-07-29T10:04:08;5.23;;;2.27;;
14326;SDS011;7247;53.330;-1.180;2022-07-29T10:06:36;5.20;;;2.40;;
14326;SDS011;7247;53.330;-1.180;2022-07-29T10:09:21;5.67;;;2.53;;
14326;SDS011;7247;53.330;-1.180;2022-07-29T10:11:48;4.53;;;2.10;;
14326;SDS011;7247;53.330;-1.180;2022-07-29T10:14:28;5.80;;;2.40;;
14326;SDS011;7247;53.330;-1.180;2022-07-29T10:16:55;4.00;;;2.23;;
14326;SDS011;7247;53.330;-1.180;2022-07-29T10:21:54;5.17;;;2.03;;
14326;SDS011;7247;53.330;-1.180;2022-07-29T10:24:21;3.53;;;1.80;;
14326;SDS011;7247;53.330;-1.180;2022-07-29T10:26:48;5.67;;;1.90;;
14326;SDS011;7247;53.330;-1.180;2022-07-29T10:29:15;5.57;;;2.10;;
14326;SDS011;7247;53.330;-1.180;2022-07-29T10:31:43;3.20;;;2.00;;
14326;SDS011;7247;53.330;-1.180;2022-07-29T10:34:13;3.00;;;1.77;;
14326;SDS011;7247;53.330;-1.180;2022-07-29T10:36:46;4.20;;;2.00;;
14326;SDS011;7247;53.330;-1.180;2022-07-29T10:39:22;4.20;;;1.77;;
14326;SDS011;7247;53.330;-1.180;2022-07-29T10:41:56;6.20;;;2.33;;
14326;SDS011;7247;53.330;-1.180;2022-07-29T10:44:25;3.00;;;1.70;;
14326;SDS011;7247;53.330;-1.180;2022-07-29T10:46:52;4.53;;;2.00;;
14326;SDS011;7247;53.330;-1.180;2022-07-29T10:49:20;5.53;;;1.80;;
14326;SDS011;7247;53.330;-1.180;2022-07-29T10:51:53;3.90;;;1.80;;
14326;SDS011;7247;53.330;-1.180;2022-07-29T10:57:16;4.93;;;1.83;;
14326;SDS011;7247;53.330;-1.180;2022-07-29T10:59:47;3.33;;;1.90;;
14326;SDS011;7247;53.330;-1.180;2022-07-29T11:04:59;3.33;;;1.93;;
14326;SDS011;7247;53.330;-1.180;2022-07-29T11:07:26;4.27;;;1.87;;
14326;SDS011;7247;53.330;-1.180;2022-07-29T11:12:49;5.07;;;2.00;;
14326;SDS011;7247;53.330;-1.180;2022-07-29T11:15:16;3.20;;;1.90;;
14326;SDS011;7247;53.330;-1.180;2022-07-29T11:20:47;2.70;;;1.70;;
14326;SDS011;7247;53.330;-1.180;2022-07-29T11:23:17;3.37;;;1.50;;
14326;SDS011;7247;53.330;-1.180;2022-07-29T11:25:44;5.80;;;2.07;;
14326;SDS011;7247;53.330;-1.180;2022-07-29T11:30:48;4.93;;;2.00;;
14326;SDS011;7247;53.330;-1.180;2022-07-29T11:33:28;2.80;;;1.80;;
14326;SDS011;7247;53.330;-1.180;2022-07-29T11:36:07;6.10;;;1.80;;
14326;SDS011;7247;53.330;-1.180;2022-07-29T11:38:37;4.13;;;1.97;;
14326;SDS011;7247;53.330;-1.180;2022-07-29T11:41:19;2.70;;;1.67;;
14326;SDS011;7247;53.330;-1.180;2022-07-29T11:43:46;5.33;;;2.00;;
14326;SDS011;7247;53.330;-1.180;2022-07-29T11:46:14;3.10;;;1.80;;
14326;SDS011;7247;53.330;-1.180;2022-07-29T11:51:45;3.80;;;2.00;;
14326;SDS011;7247;53.330;-1.180;2022-07-29T11:54:16;3.53;;;2.00;;
14326;SDS011;7247;53.330;-1.180;2022-07-29T11:56:48;3.00;;;1.60;;
14326;SDS011;7247;53.330;-1.180;2022-07-29T11:59:16;6.20;;;2.17;;
14326;SDS011;7247;53.330;-1.180;2022-07-29T12:01:53;5.63;;;2.10;;
14326;SDS011;7247;53.330;-1.180;2022-07-29T12:04:19;4.87;;;2.00;;
14326;SDS011;7247;53.330;-1.180;2022-07-29T12:06:49;2.87;;;1.90;;
14326;SDS011;7247;53.330;-1.180;2022-07-29T12:09:16;3.10;;;1.93;;
14326;SDS011;7247;53.330;-1.180;2022-07-29T12:11:44;2.07;;;1.73;;
14326;SDS011;7247;53.330;-1.180;2022-07-29T12:14:23;4.50;;;1.90;;
14326;SDS011;7247;53.330;-1.180;2022-07-29T12:16:50;4.20;;;2.10;;
14326;SDS011;7247;53.330;-1.180;2022-07-29T12:19:19;4.03;;;1.93;;
14326;SDS011;7247;53.330;-1.180;2022-07-29T12:21:46;4.40;;;2.23;;
14326;SDS011;7247;53.330;-1.180;2022-07-29T12:24:13;2.83;;;2.33;;
14326;SDS011;7247;53.330;-1.180;2022-07-29T12:26:49;4.60;;;1.90;;
14326;SDS011;7247;53.330;-1.180;2022-07-29T12:35:08;5.23;;;2.47;;
14326;SDS011;7247;53.330;-1.180;2022-07-29T12:40:38;4.37;;;1.83;;
14326;SDS011;7247;53.330;-1.180;2022-07-29T12:43:05;5.30;;;1.93;;
14326;SDS011;7247;53.330;-1.180;2022-07-29T12:45:32;2.60;;;1.80;;
14326;SDS011;7247;53.330;-1.180;2022-07-29T12:47:59;3.13;;;1.97;;
14326;SDS011;7247;53.330;-1.180;2022-07-29T12:50:27;5.37;;;2.33;;
14326;SDS011;7247;53.330;-1.180;2022-07-29T12:52:53;4.53;;;2.20;;
14326;SDS011;7247;53.330;-1.180;2022-07-29T12:55:39;5.30;;;1.97;;
14326;SDS011;7247;53.330;-1.180;2022-07-29T13:01:09;4.63;;;1.80;;
14326;SDS011;7247;53.330;-1.180;2022-07-29T13:03:50;7.50;;;2.13;;
14326;SDS011;7247;53.330;-1.180;2022-07-29T13:11:59;3.13;;;1.80;;
14326;SDS011;7247;53.330;-1.180;2022-07-29T13:14:32;6.07;;;2.00;;
14326;SDS011;7247;53.330;-1.180;2022-07-29T13:17:03;3.20;;;2.00;;
14326;SDS011;7247;53.330;-1.180;2022-07-29T13:22:32;6.17;;;2.00;;
14326;SDS011;7247;53.330;-1.180;2022-07-29T13:25:00;3.07;;;1.93;;
14326;SDS011;7247;53.330;-1.180;2022-07-29T13:27:29;5.23;;;2.00;;
14326;SDS011;7247;53.330;-1.180;2022-07-29T13:29:57;3.27;;;1.93;;
14326;SDS011;7247;53.330;-1.180;2022-07-29T13:32:25;5.33;;;2.23;;
14326;SDS011;7247;53.330;-1.180;2022-07-29T13:34:52;3.33;;;1.83;;
14326;SDS011;7247;53.330;-1.180;2022-07-29T13:37:21;4.07;;;1.87;;
14326;SDS011;7247;53.330;-1.180;2022-07-29T13:42:36;3.33;;;2.03;;
14326;SDS011;7247;53.330;-1.180;2022-07-29T13:45:03;4.43;;;2.13;;
14326;SDS011;7247;53.330;-1.180;2022-07-29T13:50:34;3.50;;;2.17;;
14326;SDS011;7247;53.330;-1.180;2022-07-29T13:53:00;7.40;;;2.20;;
14326;SDS011;7247;53.330;-1.180;2022-07-29T13:55:27;3.27;;;2.20;;
14326;SDS011;7247;53.330;-1.180;2022-07-29T14:00:58;5.77;;;2.13;;
14326;SDS011;7247;53.330;-1.180;2022-07-29T14:09:30;2.93;;;2.07;;
14326;SDS011;7247;53.330;-1.180;2022-07-29T14:11:57;4.23;;;2.13;;
14326;SDS011;7247;53.330;-1.180;2022-07-29T14:14:24;7.90;;;2.30;;
14326;SDS011;7247;53.330;-1.180;2022-07-29T14:16:52;4.63;;;2.30;;
14326;SDS011;7247;53.330;-1.180;2022-07-29T14:21:49;4.17;;;2.10;;
14326;SDS011;7247;53.330;-1.180;2022-07-29T14:24:16;5.33;;;2.13;;
14326;SDS011;7247;53.330;-1.180;2022-07-29T14:26:42;5.87;;;2.30;;
14326;SDS011;7247;53.330;-1.180;2022-07-29T14:32:13;4.13;;;1.90;;
14326;SDS011;7247;53.330;-1.180;2022-07-29T14:37:27;4.07;;;2.00;;
14326;SDS011;7247;53.330;-1.180;2022-07-29T14:39:54;4.73;;;1.90;;
14326;SDS011;7247;53.330;-1.180;2022-07-29T14:42:24;3.40;;;2.00;;
14326;SDS011;7247;53.330;-1.180;2022-07-29T14:44:51;3.13;;;1.90;;
14326;SDS011;7247;53.330;-1.180;2022-07-29T14:47:19;3.93;;;2.10;;
14326;SDS011;7247;53.330;-1.180;2022-07-29T14:52:49;2.40;;;1.90;;
14326;SDS011;7247;53.330;-1.180;2022-07-29T14:55:16;2.23;;;1.67;;
14326;SDS011;7247;53.330;-1.180;2022-07-29T14:57:43;4.13;;;2.07;;
14326;SDS011;7247;53.330;-1.180;2022-07-29T15:00:10;5.50;;;2.03;;
14326;SDS011;7247;53.330;-1.180;2022-07-29T15:02:38;5.33;;;1.90;;
14326;SDS011;7247;53.330;-1.180;2022-07-29T15:05:05;3.73;;;2.03;;
14326;SDS011;7247;53.330;-1.180;2022-07-29T15:10:35;2.87;;;1.97;;
14326;SDS011;7247;53.330;-1.180;2022-07-29T15:16:04;3.63;;;1.90;;
14326;SDS011;7247;53.330;-1.180;2022-07-29T15:21:35;3.70;;;2.00;;
14326;SDS011;7247;53.330;-1.180;2022-07-29T15:24:02;4.20;;;2.10;;
14326;SDS011;7247;53.330;-1.180;2022-07-29T15:26:29;3.77;;;1.70;;
14326;SDS011;7247;53.330;-1.180;2022-07-29T15:31:43;4.90;;;2.03;;
14326;SDS011;7247;53.330;-1.180;2022-07-29T15:34:10;3.23;;;1.80;;
14326;SDS011;7247;53.330;-1.180;2022-07-29T15:36:38;2.57;;;1.83;;
14326;SDS011;7247;53.330;-1.180;2022-07-29T15:42:07;3.97;;;1.97;;
14326;SDS011;7247;53.330;-1.180;2022-07-29T15:47:36;3.30;;;2.50;;
14326;SDS011;7247;53.330;-1.180;2022-07-29T15:50:03;7.53;;;2.90;;
14326;SDS011;7247;53.330;-1.180;2022-07-29T15:52:32;8.43;;;2.80;;
14326;SDS011;7247;53.330;-1.180;2022-07-29T15:54:59;4.00;;;2.30;;
14326;SDS011;7247;53.330;-1.180;2022-07-29T15:57:26;4.37;;;2.17;;
14326;SDS011;7247;53.330;-1.180;2022-07-29T15:59:52;4.53;;;2.03;;
14326;SDS011;7247;53.330;-1.180;2022-07-29T16:02:19;4.63;;;2.03;;
14326;SDS011;7247;53.330;-1.180;2022-07-29T16:04:45;4.40;;;2.30;;
14326;SDS011;7247;53.330;-1.180;2022-07-29T16:07:12;3.17;;;2.10;;
14326;SDS011;7247;53.330;-1.180;2022-07-29T16:09:42;4.53;;;2.10;;
14326;SDS011;7247;53.330;-1.180;2022-07-29T16:12:08;6.57;;;2.30;;
14326;SDS011;7247;53.330;-1.180;2022-07-29T16:14:35;5.20;;;2.37;;
14326;SDS011;7247;53.330;-1.180;2022-07-29T16:17:02;6.37;;;2.30;;
14326;SDS011;7247;53.330;-1.180;2022-07-29T16:22:31;3.87;;;2.00;;
14326;SDS011;7247;53.330;-1.180;2022-07-29T16:25:00;3.27;;;2.13;;
14326;SDS011;7247;53.330;-1.180;2022-07-29T16:27:27;4.53;;;2.03;;
14326;SDS011;7247;53.330;-1.180;2022-07-29T16:29:54;3.73;;;2.03;;
14326;SDS011;7247;53.330;-1.180;2022-07-29T16:32:20;3.33;;;2.10;;
14326;SDS011;7247;53.330;-1.180;2022-07-29T16:34:47;3.47;;;2.00;;
14326;SDS011;7247;53.330;-1.180;2022-07-29T16:37:14;5.50;;;2.40;;
14326;SDS011;7247;53.330;-1.180;2022-07-29T16:42:44;5.27;;;2.20;;
14326;SDS011;7247;53.330;-1.180;2022-07-29T16:45:11;3.37;;;2.17;;
14326;SDS011;7247;53.330;-1.180;2022-07-29T16:53:28;4.43;;;2.20;;
14326;SDS011;7247;53.330;-1.180;2022-07-29T16:55:55;3.80;;;2.10;;
14326;SDS011;7247;53.330;-1.180;2022-07-29T17:01:09;3.43;;;2.40;;
14326;SDS011;7247;53.330;-1.180;2022-07-29T17:03:36;4.87;;;2.67;;
14326;SDS011;7247;53.330;-1.180;2022-07-29T17:06:23;14.57;;;9.77;;
14326;SDS011;7247;53.330;-1.180;2022-07-29T17:11:52;11.47;;;10.40;;
14326;SDS011;7247;53.330;-1.180;2022-07-29T17:14:20;5.70;;;3.60;;
14326;SDS011;7247;53.330;-1.180;2022-07-29T17:16:48;7.57;;;6.20;;
14326;SDS011;7247;53.330;-1.180;2022-07-29T17:22:17;2.97;;;2.20;;
14326;SDS011;7247;53.330;-1.180;2022-07-29T17:27:13;4.47;;;2.50;;
14326;SDS011;7247;53.330;-1.180;2022-07-29T17:32:44;3.97;;;1.90;;
14326;SDS011;7247;53.330;-1.180;2022-07-29T17:35:11;4.43;;;1.90;;
14326;SDS011;7247;53.330;-1.180;2022-07-29T17:46:46;3.77;;;1.83;;
14326;SDS011;7247;53.330;-1.180;2022-07-29T17:52:17;3.77;;;2.00;;
14326;SDS011;7247;53.330;-1.180;2022-07-29T17:54:43;7.13;;;2.47;;
14326;SDS011;7247;53.330;-1.180;2022-07-29T17:57:12;3.47;;;1.90;;
14326;SDS011;7247;53.330;-1.180;2022-07-29T18:05:44;2.90;;;2.00;;
14326;SDS011;7247;53.330;-1.180;2022-07-29T18:10:58;4.70;;;1.87;;
14326;SDS011;7247;53.330;-1.180;2022-07-29T18:13:26;5.37;;;2.10;;
14326;SDS011;7247;53.330;-1.180;2022-07-29T18:15:52;4.03;;;1.83;;
14326;SDS011;7247;53.330;-1.180;2022-07-29T18:18:25;7.03;;;1.70;;
14326;SDS011;7247;53.330;-1.180;2022-07-29T18:20:53;2.47;;;1.90;;
14326;SDS011;7247;53.330;-1.180;2022-07-29T18:23:20;3.53;;;2.00;;
14326;SDS011;7247;53.330;-1.180;2022-07-29T18:25:46;4.00;;;1.90;;
14326;SDS011;7247;53.330;-1.180;2022-07-29T18:31:03;6.07;;;2.20;;
14326;SDS011;7247;53.330;-1.180;2022-07-29T18:33:31;7.40;;;1.87;;
14326;SDS011;7247;53.330;-1.180;2022-07-29T18:35:57;6.63;;;2.07;;
14326;SDS011;7247;53.330;-1.180;2022-07-29T18:44:13;6.20;;;2.90;;
14326;SDS011;7247;53.330;-1.180;2022-07-29T18:46:43;10.37;;;3.00;;
14326;SDS011;7247;53.330;-1.180;2022-07-29T18:52:12;13.93;;;2.90;;
14326;SDS011;7247;53.330;-1.180;2022-07-29T18:54:39;25.63;;;4.33;;
14326;SDS011;7247;53.330;-1.180;2022-07-29T18:57:06;25.07;;;4.77;;
14326;SDS011;7247;53.330;-1.180;2022-07-29T19:02:37;19.30;;;3.77;;
14326;SDS011;7247;53.330;-1.180;2022-07-29T19:05:04;14.70;;;4.10;;